createdAt,value
2023-01-04T00:05:16.672Z,0.60
2023-01-04T00:15:21.662Z,0.30
2023-01-04T00:25:25.219Z,0.90
2023-01-04T00:35:45.342Z,1.10
2023-01-04T00:45:49.741Z,0.90
2023-01-04T00:56:00.568Z,0.80
2023-01-04T01:06:04.885Z,0.40
2023-01-04T01:16:13.353Z,0.00
2023-01-04T01:26:19.976Z,-0.50
2023-01-04T01:36:26.558Z,-0.80
2023-01-04T01:46:36.159Z,-1.10
2023-01-04T01:56:44.579Z,-1.60
2023-01-04T02:06:53.924Z,-1.70
2023-01-04T02:17:12.771Z,-1.90
2023-01-04T02:27:45.928Z,-2.00
2023-01-04T02:37:59.456Z,-1.80
2023-01-04T02:48:23.318Z,-1.60
2023-01-04T02:58:50.067Z,-1.40
2023-01-04T03:09:03.030Z,-1.20
2023-01-04T03:19:10.492Z,-1.60
2023-01-04T03:29:40.323Z,-1.90
2023-01-04T03:40:36.517Z,-2.20
2023-01-04T03:50:43.700Z,-2.80
2023-01-04T04:00:49.207Z,-2.80
2023-01-04T04:10:53.028Z,-2.90
2023-01-04T04:21:00.292Z,-3.10
2023-01-04T04:31:03.856Z,-3.10
2023-01-04T04:41:32.316Z,-2.90
2023-01-04T04:51:36.252Z,-2.80
2023-01-04T05:01:41.317Z,-2.70
2023-01-04T05:12:02.318Z,-3.10
2023-01-04T05:22:07.215Z,-3.20
2023-01-04T05:32:10.701Z,-3.30
2023-01-04T05:42:28.212Z,-3.60
2023-01-04T05:52:32.745Z,-3.70
2023-01-04T06:02:38.016Z,-3.90
2023-01-04T06:12:42.400Z,-4.30
2023-01-04T06:22:47.287Z,-4.30
2023-01-04T06:32:50.726Z,-4.60
2023-01-04T06:42:55.595Z,-4.60
2023-01-04T06:52:59.069Z,-4.20
2023-01-04T07:03:14.041Z,-4.10
2023-01-04T07:13:19.337Z,-3.80
2023-01-04T07:23:24.311Z,-3.90
2023-01-04T07:33:27.755Z,-3.20
2023-01-04T07:43:32.616Z,-3.00
2023-01-04T07:53:36.159Z,-2.20
2023-01-04T08:03:41.086Z,-0.40
2023-01-04T08:13:45.156Z,3.20
2023-01-04T08:23:50.126Z,8.40
2023-01-04T08:33:54.936Z,12.30
2023-01-04T08:43:59.818Z,13.10
2023-01-04T08:54:03.441Z,15.90
2023-01-04T09:04:08.916Z,18.80
2023-01-04T09:14:14.026Z,21.10
2023-01-04T09:24:18.968Z,23.00
2023-01-04T09:34:22.483Z,24.90
2023-01-04T09:45:22.083Z,27.20
2023-01-04T09:55:38.217Z,28.40
2023-01-04T10:05:35.877Z,30.80
2023-01-04T10:15:46.328Z,31.50
2023-01-04T10:25:58.764Z,32.30
2023-01-04T10:36:02.885Z,33.80
2023-01-04T10:46:15.722Z,34.70
2023-01-04T10:56:27.558Z,34.60
2023-01-04T11:06:41.468Z,34.50
2023-01-04T11:16:48.322Z,35.30
2023-01-04T11:26:54.869Z,34.90
2023-01-04T11:36:58.396Z,33.60
2023-01-04T11:47:19.324Z,29.70
2023-01-04T11:57:23.027Z,27.30
2023-01-04T12:07:32.494Z,24.20
2023-01-04T12:17:49.232Z,19.40
2023-01-04T12:27:55.418Z,19.20
2023-01-04T12:37:58.911Z,20.10
2023-01-04T12:48:54.148Z,22.90
2023-01-04T12:59:25.317Z,23.70
2023-01-04T13:09:34.944Z,18.20
2023-01-04T13:19:40.819Z,14.30
2023-01-04T13:29:46.604Z,11.70
2023-01-04T13:39:52.746Z,10.10
2023-01-04T13:49:57.712Z,9.20
2023-01-04T14:00:01.214Z,8.80
2023-01-04T14:10:07.339Z,8.90
2023-01-04T14:20:36.727Z,8.90
2023-01-04T14:30:41.726Z,8.10
2023-01-04T14:40:46.319Z,7.50
2023-01-04T14:50:51.248Z,6.80
2023-01-04T15:00:54.725Z,6.60
2023-01-04T15:11:00.520Z,6.50
2023-01-04T15:21:04.238Z,6.40
2023-01-04T15:31:13.640Z,6.20
2023-01-04T15:41:32.980Z,6.20
2023-01-04T15:51:37.859Z,6.00
2023-01-04T16:01:42.100Z,5.80
2023-01-04T16:12:01.069Z,5.70
2023-01-04T16:22:04.530Z,6.10
2023-01-04T16:32:09.594Z,6.20
2023-01-04T16:42:13.093Z,6.30
2023-01-04T16:52:18.194Z,6.40
2023-01-04T17:02:23.371Z,6.20
2023-01-04T17:22:52.527Z,6.10
2023-01-04T17:32:57.633Z,6.10
2023-01-04T17:43:01.856Z,6.10
2023-01-04T17:53:06.967Z,6.00
2023-01-04T18:03:10.779Z,6.10
2023-01-04T18:13:16.460Z,6.20
2023-01-04T18:23:25.681Z,6.20
2023-01-04T18:33:31.291Z,6.30
2023-01-04T18:43:36.235Z,6.40
2023-01-04T18:53:41.451Z,6.30
2023-01-04T19:03:49.676Z,6.60
2023-01-04T19:13:55.939Z,5.90
2023-01-04T19:23:59.830Z,6.20
2023-01-04T19:34:06.299Z,6.20
2023-01-04T19:44:13.230Z,6.40
2023-01-04T19:54:25.017Z,6.40
2023-01-04T20:04:31.824Z,6.50
2023-01-04T20:14:39.514Z,6.70
2023-01-04T20:24:44.641Z,6.80
2023-01-04T20:34:50.328Z,7.50
2023-01-04T20:44:54.983Z,7.30
2023-01-04T20:55:00.204Z,7.40
2023-01-04T21:05:03.921Z,7.30
2023-01-04T21:15:10.645Z,7.20
2023-01-04T21:25:14.519Z,7.10
2023-01-04T21:35:19.827Z,7.40
2023-01-04T21:45:23.662Z,7.60
2023-01-04T21:55:34.198Z,7.40
2023-01-04T22:05:38.562Z,7.30
2023-01-04T22:15:43.806Z,7.50
2023-01-04T22:25:47.371Z,7.40
2023-01-04T22:35:52.776Z,7.40
2023-01-04T22:46:01.637Z,7.40
2023-01-04T22:56:20.828Z,7.40
2023-01-04T23:06:27.872Z,7.40
2023-01-04T23:16:33.743Z,7.30
2023-01-04T23:26:37.397Z,7.50
2023-01-04T23:36:43.472Z,7.60
2023-01-04T23:46:48.834Z,7.40
2023-01-04T23:56:53.929Z,7.30
